sensor_id;sensor_type;location;lat;lon;timestamp;P1;P2;P0
38687;PMS5003;24444;53.216;-6.664;2022-07-29T00:00:21;4;4;
38687;PMS5003;24444;53.216;-6.664;2022-07-29T00:02:49;6;5;
38687;PMS5003;24444;53.216;-6.664;2022-07-29T00:05:16;5;5;
38687;PMS5003;24444;53.216;-6.664;2022-07-29T00:07:44;5;5;
38687;PMS5003;24444;53.216;-6.664;2022-07-29T00:10:12;4;3;
38687;PMS5003;24444;53.216;-6.664;2022-07-29T00:12:39;6;4;
38687;PMS5003;24444;53.216;-6.664;2022-07-29T00:15:07;4;4;
38687;PMS5003;24444;53.216;-6.664;2022-07-29T00:17:34;9;9;
38687;PMS5003;24444;53.216;-6.664;2022-07-29T00:20:02;4;4;
38687;PMS5003;24444;53.216;-6.664;2022-07-29T00:22:30;9;7;
38687;PMS5003;24444;53.216;-6.664;2022-07-29T00:24:58;4;4;
38687;PMS5003;24444;53.216;-6.664;2022-07-29T00:27:25;6;6;
38687;PMS5003;24444;53.216;-6.664;2022-07-29T00:29:53;7;7;
38687;PMS5003;24444;53.216;-6.664;2022-07-29T00:32:20;10;10;
38687;PMS5003;24444;53.216;-6.664;2022-07-29T00:34:48;5;5;
38687;PMS5003;24444;53.216;-6.664;2022-07-29T00:37:15;4;4;
38687;PMS5003;24444;53.216;-6.664;2022-07-29T00:39:43;7;7;
38687;PMS5003;24444;53.216;-6.664;2022-07-29T00:42:10;7;7;
38687;PMS5003;24444;53.216;-6.664;2022-07-29T00:44:38;7;6;
38687;PMS5003;24444;53.216;-6.664;2022-07-29T00:47:07;5;4;
38687;PMS5003;24444;53.216;-6.664;2022-07-29T00:49:35;4;3;
38687;PMS5003;24444;53.216;-6.664;2022-07-29T00:52:05;8;6;
38687;PMS5003;24444;53.216;-6.664;2022-07-29T00:54:33;6;6;
38687;PMS5003;24444;53.216;-6.664;2022-07-29T00:57:01;5;4;
38687;PMS5003;24444;53.216;-6.664;2022-07-29T00:59:29;4;3;
38687;PMS5003;24444;53.216;-6.664;2022-07-29T01:01:56;4;4;
38687;PMS5003;24444;53.216;-6.664;2022-07-29T01:04:24;6;5;
38687;PMS5003;24444;53.216;-6.664;2022-07-29T01:06:52;6;6;
38687;PMS5003;24444;53.216;-6.664;2022-07-29T01:09:21;6;6;
38687;PMS5003;24444;53.216;-6.664;2022-07-29T01:11:49;5;5;
38687;PMS5003;24444;53.216;-6.664;2022-07-29T01:14:16;5;5;
38687;PMS5003;24444;53.216;-6.664;2022-07-29T01:16:51;5;5;
38687;PMS5003;24444;53.216;-6.664;2022-07-29T01:19:46;7;7;
38687;PMS5003;24444;53.216;-6.664;2022-07-29T01:22:24;6;6;
38687;PMS5003;24444;53.216;-6.664;2022-07-29T01:25:03;6;4;
38687;PMS5003;24444;53.216;-6.664;2022-07-29T01:27:43;6;5;
38687;PMS5003;24444;53.216;-6.664;2022-07-29T01:30:17;6;6;
38687;PMS5003;24444;53.216;-6.664;2022-07-29T01:32:46;7;7;
38687;PMS5003;24444;53.216;-6.664;2022-07-29T01:35:17;5;5;
38687;PMS5003;24444;53.216;-6.664;2022-07-29T01:37:49;8;8;
38687;PMS5003;24444;53.216;-6.664;2022-07-29T01:40:23;8;8;
38687;PMS5003;24444;53.216;-6.664;2022-07-29T01:43:03;9;9;
38687;PMS5003;24444;53.216;-6.664;2022-07-29T01:45:37;8;8;
38687;PMS5003;24444;53.216;-6.664;2022-07-29T01:48:10;8;6;
38687;PMS5003;24444;53.216;-6.664;2022-07-29T01:50:44;5;5;
38687;PMS5003;24444;53.216;-6.664;2022-07-29T01:53:38;11;11;
38687;PMS5003;24444;53.216;-6.664;2022-07-29T01:56:12;11;11;
38687;PMS5003;24444;53.216;-6.664;2022-07-29T01:58:42;10;9;
38687;PMS5003;24444;53.216;-6.664;2022-07-29T02:01:12;7;7;
38687;PMS5003;24444;53.216;-6.664;2022-07-29T02:03:41;10;9;
38687;PMS5003;24444;53.216;-6.664;2022-07-29T02:06:11;7;7;
38687;PMS5003;24444;53.216;-6.664;2022-07-29T02:08:42;9;8;
38687;PMS5003;24444;53.216;-6.664;2022-07-29T02:11:12;13;11;
38687;PMS5003;24444;53.216;-6.664;2022-07-29T02:13:40;6;6;
38687;PMS5003;24444;53.216;-6.664;2022-07-29T02:16:08;6;6;
38687;PMS5003;24444;53.216;-6.664;2022-07-29T02:18:39;6;5;
38687;PMS5003;24444;53.216;-6.664;2022-07-29T02:21:10;7;7;
38687;PMS5003;24444;53.216;-6.664;2022-07-29T02:23:39;8;7;
38687;PMS5003;24444;53.216;-6.664;2022-07-29T02:26:07;8;8;
38687;PMS5003;24444;53.216;-6.664;2022-07-29T02:28:35;8;8;
38687;PMS5003;24444;53.216;-6.664;2022-07-29T02:31:03;9;9;
38687;PMS5003;24444;53.216;-6.664;2022-07-29T02:33:31;6;6;
38687;PMS5003;24444;53.216;-6.664;2022-07-29T02:35:59;8;7;
38687;PMS5003;24444;53.216;-6.664;2022-07-29T02:38:28;7;7;
38687;PMS5003;24444;53.216;-6.664;2022-07-29T02:40:57;8;8;
38687;PMS5003;24444;53.216;-6.664;2022-07-29T02:43:27;7;7;
38687;PMS5003;24444;53.216;-6.664;2022-07-29T02:45:57;7;7;
38687;PMS5003;24444;53.216;-6.664;2022-07-29T02:48:30;7;7;
38687;PMS5003;24444;53.216;-6.664;2022-07-29T02:51:04;8;8;
38687;PMS5003;24444;53.216;-6.664;2022-07-29T02:53:34;6;6;
38687;PMS5003;24444;53.216;-6.664;2022-07-29T02:56:06;9;8;
38687;PMS5003;24444;53.216;-6.664;2022-07-29T02:58:38;8;6;
38687;PMS5003;24444;53.216;-6.664;2022-07-29T03:01:08;8;8;
38687;PMS5003;24444;53.216;-6.664;2022-07-29T03:03:39;8;8;
38687;PMS5003;24444;53.216;-6.664;2022-07-29T03:06:12;6;6;
38687;PMS5003;24444;53.216;-6.664;2022-07-29T03:08:41;9;7;
38687;PMS5003;24444;53.216;-6.664;2022-07-29T03:11:09;8;7;
38687;PMS5003;24444;53.216;-6.664;2022-07-29T03:13:38;9;8;
38687;PMS5003;24444;53.216;-6.664;2022-07-29T03:16:07;9;9;
38687;PMS5003;24444;53.216;-6.664;2022-07-29T03:18:37;8;6;
38687;PMS5003;24444;53.216;-6.664;2022-07-29T03:21:05;8;8;
38687;PMS5003;24444;53.216;-6.664;2022-07-29T03:23:32;8;8;
38687;PMS5003;24444;53.216;-6.664;2022-07-29T03:26:00;6;6;
38687;PMS5003;24444;53.216;-6.664;2022-07-29T03:28:29;9;8;
38687;PMS5003;24444;53.216;-6.664;2022-07-29T03:30:56;10;9;
38687;PMS5003;24444;53.216;-6.664;2022-07-29T03:33:23;9;9;
38687;PMS5003;24444;53.216;-6.664;2022-07-29T03:35:51;8;8;
38687;PMS5003;24444;53.216;-6.664;2022-07-29T03:38:18;8;7;
38687;PMS5003;24444;53.216;-6.664;2022-07-29T03:40:48;9;8;
38687;PMS5003;24444;53.216;-6.664;2022-07-29T03:43:19;6;6;
38687;PMS5003;24444;53.216;-6.664;2022-07-29T03:45:49;9;8;
38687;PMS5003;24444;53.216;-6.664;2022-07-29T03:48:22;7;7;
38687;PMS5003;24444;53.216;-6.664;2022-07-29T03:50:52;10;9;
38687;PMS5003;24444;53.216;-6.664;2022-07-29T03:53:19;9;8;
38687;PMS5003;24444;53.216;-6.664;2022-07-29T03:55:48;9;8;
38687;PMS5003;24444;53.216;-6.664;2022-07-29T03:58:24;8;7;
38687;PMS5003;24444;53.216;-6.664;2022-07-29T04:00:53;9;9;
38687;PMS5003;24444;53.216;-6.664;2022-07-29T04:03:21;7;7;
38687;PMS5003;24444;53.216;-6.664;2022-07-29T04:05:57;9;9;
38687;PMS5003;24444;53.216;-6.664;2022-07-29T04:08:26;6;6;
38687;PMS5003;24444;53.216;-6.664;2022-07-29T04:10:54;8;8;
38687;PMS5003;24444;53.216;-6.664;2022-07-29T04:13:21;12;10;
38687;PMS5003;24444;53.216;-6.664;2022-07-29T04:15:49;6;6;
38687;PMS5003;24444;53.216;-6.664;2022-07-29T04:18:16;8;8;
38687;PMS5003;24444;53.216;-6.664;2022-07-29T04:20:44;7;7;
38687;PMS5003;24444;53.216;-6.664;2022-07-29T04:23:11;8;7;
38687;PMS5003;24444;53.216;-6.664;2022-07-29T04:25:39;10;9;
38687;PMS5003;24444;53.216;-6.664;2022-07-29T04:28:07;12;11;
38687;PMS5003;24444;53.216;-6.664;2022-07-29T04:30:36;10;10;
38687;PMS5003;24444;53.216;-6.664;2022-07-29T04:33:04;11;9;
38687;PMS5003;24444;53.216;-6.664;2022-07-29T04:35:33;6;6;
38687;PMS5003;24444;53.216;-6.664;2022-07-29T04:38:03;9;9;
38687;PMS5003;24444;53.216;-6.664;2022-07-29T04:40:31;7;7;
38687;PMS5003;24444;53.216;-6.664;2022-07-29T04:42:59;9;9;
38687;PMS5003;24444;53.216;-6.664;2022-07-29T04:45:26;9;9;
38687;PMS5003;24444;53.216;-6.664;2022-07-29T04:47:53;7;7;
38687;PMS5003;24444;53.216;-6.664;2022-07-29T04:50:21;11;10;
38687;PMS5003;24444;53.216;-6.664;2022-07-29T04:52:49;9;9;
38687;PMS5003;24444;53.216;-6.664;2022-07-29T04:55:16;8;8;
38687;PMS5003;24444;53.216;-6.664;2022-07-29T04:57:44;10;10;
38687;PMS5003;24444;53.216;-6.664;2022-07-29T05:00:12;7;7;
38687;PMS5003;24444;53.216;-6.664;2022-07-29T05:02:40;8;8;
38687;PMS5003;24444;53.216;-6.664;2022-07-29T05:05:07;9;9;
38687;PMS5003;24444;53.216;-6.664;2022-07-29T05:07:35;7;7;
38687;PMS5003;24444;53.216;-6.664;2022-07-29T05:10:03;9;9;
38687;PMS5003;24444;53.216;-6.664;2022-07-29T05:12:31;7;6;
38687;PMS5003;24444;53.216;-6.664;2022-07-29T05:14:59;10;10;
38687;PMS5003;24444;53.216;-6.664;2022-07-29T05:17:26;8;8;
38687;PMS5003;24444;53.216;-6.664;2022-07-29T05:19:54;7;7;
38687;PMS5003;24444;53.216;-6.664;2022-07-29T05:22:22;10;10;
38687;PMS5003;24444;53.216;-6.664;2022-07-29T05:24:50;7;6;
38687;PMS5003;24444;53.216;-6.664;2022-07-29T05:27:17;6;6;
38687;PMS5003;24444;53.216;-6.664;2022-07-29T05:29:45;10;10;
38687;PMS5003;24444;53.216;-6.664;2022-07-29T05:32:12;10;9;
38687;PMS5003;24444;53.216;-6.664;2022-07-29T05:34:40;7;7;
38687;PMS5003;24444;53.216;-6.664;2022-07-29T05:37:07;7;7;
38687;PMS5003;24444;53.216;-6.664;2022-07-29T05:39:35;9;8;
38687;PMS5003;24444;53.216;-6.664;2022-07-29T05:42:02;7;6;
38687;PMS5003;24444;53.216;-6.664;2022-07-29T05:44:35;7;7;
38687;PMS5003;24444;53.216;-6.664;2022-07-29T05:47:03;6;6;
38687;PMS5003;24444;53.216;-6.664;2022-07-29T05:49:31;9;8;
38687;PMS5003;24444;53.216;-6.664;2022-07-29T05:51:59;7;7;
38687;PMS5003;24444;53.216;-6.664;2022-07-29T05:54:26;6;6;
38687;PMS5003;24444;53.216;-6.664;2022-07-29T05:56:54;7;6;
38687;PMS5003;24444;53.216;-6.664;2022-07-29T05:59:21;7;6;
38687;PMS5003;24444;53.216;-6.664;2022-07-29T06:01:48;8;6;
38687;PMS5003;24444;53.216;-6.664;2022-07-29T06:04:16;9;8;
38687;PMS5003;24444;53.216;-6.664;2022-07-29T06:06:44;8;7;
38687;PMS5003;24444;53.216;-6.664;2022-07-29T06:09:11;8;8;
38687;PMS5003;24444;53.216;-6.664;2022-07-29T06:11:39;7;7;
38687;PMS5003;24444;53.216;-6.664;2022-07-29T06:14:06;9;8;
38687;PMS5003;24444;53.216;-6.664;2022-07-29T06:16:34;7;7;
38687;PMS5003;24444;53.216;-6.664;2022-07-29T06:19:01;8;8;
38687;PMS5003;24444;53.216;-6.664;2022-07-29T06:21:29;10;10;
38687;PMS5003;24444;53.216;-6.664;2022-07-29T06:23:56;9;9;
38687;PMS5003;24444;53.216;-6.664;2022-07-29T06:26:24;8;8;
38687;PMS5003;24444;53.216;-6.664;2022-07-29T06:28:51;9;9;
38687;PMS5003;24444;53.216;-6.664;2022-07-29T06:31:19;5;5;
38687;PMS5003;24444;53.216;-6.664;2022-07-29T06:33:47;6;6;
38687;PMS5003;24444;53.216;-6.664;2022-07-29T06:36:14;8;7;
38687;PMS5003;24444;53.216;-6.664;2022-07-29T06:38:42;6;6;
38687;PMS5003;24444;53.216;-6.664;2022-07-29T06:41:09;7;6;
38687;PMS5003;24444;53.216;-6.664;2022-07-29T06:43:37;7;7;
38687;PMS5003;24444;53.216;-6.664;2022-07-29T06:46:07;8;8;
38687;PMS5003;24444;53.216;-6.664;2022-07-29T06:48:35;8;7;
38687;PMS5003;24444;53.216;-6.664;2022-07-29T06:51:04;10;8;
38687;PMS5003;24444;53.216;-6.664;2022-07-29T06:53:32;10;8;
38687;PMS5003;24444;53.216;-6.664;2022-07-29T06:56:01;6;6;
38687;PMS5003;24444;53.216;-6.664;2022-07-29T06:58:29;6;6;
38687;PMS5003;24444;53.216;-6.664;2022-07-29T07:00:57;9;7;
38687;PMS5003;24444;53.216;-6.664;2022-07-29T07:03:25;8;7;
38687;PMS5003;24444;53.216;-6.664;2022-07-29T07:05:53;10;10;
38687;PMS5003;24444;53.216;-6.664;2022-07-29T07:08:21;7;7;
38687;PMS5003;24444;53.216;-6.664;2022-07-29T07:10:48;9;8;
38687;PMS5003;24444;53.216;-6.664;2022-07-29T07:13:16;12;12;
38687;PMS5003;24444;53.216;-6.664;2022-07-29T07:15:44;25;25;
38687;PMS5003;24444;53.216;-6.664;2022-07-29T07:18:12;20;20;
38687;PMS5003;24444;53.216;-6.664;2022-07-29T07:20:39;14;14;
38687;PMS5003;24444;53.216;-6.664;2022-07-29T07:23:07;27;27;
38687;PMS5003;24444;53.216;-6.664;2022-07-29T07:25:34;29;28;
38687;PMS5003;24444;53.216;-6.664;2022-07-29T07:28:01;27;27;
38687;PMS5003;24444;53.216;-6.664;2022-07-29T07:30:29;25;24;
38687;PMS5003;24444;53.216;-6.664;2022-07-29T07:32:56;21;19;
38687;PMS5003;24444;53.216;-6.664;2022-07-29T07:35:23;22;22;
38687;PMS5003;24444;53.216;-6.664;2022-07-29T07:37:51;21;20;
38687;PMS5003;24444;53.216;-6.664;2022-07-29T07:40:19;28;27;
38687;PMS5003;24444;53.216;-6.664;2022-07-29T07:42:46;23;22;
38687;PMS5003;24444;53.216;-6.664;2022-07-29T07:45:14;15;15;
38687;PMS5003;24444;53.216;-6.664;2022-07-29T07:47:42;7;7;
38687;PMS5003;24444;53.216;-6.664;2022-07-29T07:50:10;12;12;
38687;PMS5003;24444;53.216;-6.664;2022-07-29T07:52:45;12;11;
38687;PMS5003;24444;53.216;-6.664;2022-07-29T07:55:14;8;7;
38687;PMS5003;24444;53.216;-6.664;2022-07-29T07:57:41;6;6;
38687;PMS5003;24444;53.216;-6.664;2022-07-29T08:00:09;10;8;
38687;PMS5003;24444;53.216;-6.664;2022-07-29T08:02:37;5;5;
38687;PMS5003;24444;53.216;-6.664;2022-07-29T08:05:05;7;6;
38687;PMS5003;24444;53.216;-6.664;2022-07-29T08:07:38;7;7;
38687;PMS5003;24444;53.216;-6.664;2022-07-29T08:10:05;16;16;
38687;PMS5003;24444;53.216;-6.664;2022-07-29T08:12:33;9;8;
38687;PMS5003;24444;53.216;-6.664;2022-07-29T08:15:01;10;9;
38687;PMS5003;24444;53.216;-6.664;2022-07-29T08:17:28;6;6;
38687;PMS5003;24444;53.216;-6.664;2022-07-29T08:19:56;6;6;
38687;PMS5003;24444;53.216;-6.664;2022-07-29T08:22:23;5;5;
38687;PMS5003;24444;53.216;-6.664;2022-07-29T08:24:51;9;7;
38687;PMS5003;24444;53.216;-6.664;2022-07-29T08:27:18;3;3;
38687;PMS5003;24444;53.216;-6.664;2022-07-29T08:29:46;4;4;
38687;PMS5003;24444;53.216;-6.664;2022-07-29T08:32:13;8;7;
38687;PMS5003;24444;53.216;-6.664;2022-07-29T08:34:41;8;7;
38687;PMS5003;24444;53.216;-6.664;2022-07-29T08:37:08;3;2;
38687;PMS5003;24444;53.216;-6.664;2022-07-29T08:39:36;8;6;
38687;PMS5003;24444;53.216;-6.664;2022-07-29T08:42:03;12;10;
38687;PMS5003;24444;53.216;-6.664;2022-07-29T08:44:31;6;5;
38687;PMS5003;24444;53.216;-6.664;2022-07-29T08:47:00;6;4;
38687;PMS5003;24444;53.216;-6.664;2022-07-29T08:49:27;5;4;
38687;PMS5003;24444;53.216;-6.664;2022-07-29T08:51:55;5;5;
38687;PMS5003;24444;53.216;-6.664;2022-07-29T08:54:24;4;4;
38687;PMS5003;24444;53.216;-6.664;2022-07-29T08:56:52;6;5;
38687;PMS5003;24444;53.216;-6.664;2022-07-29T08:59:20;3;3;
38687;PMS5003;24444;53.216;-6.664;2022-07-29T09:01:51;5;5;
38687;PMS5003;24444;53.216;-6.664;2022-07-29T09:04:20;4;4;
38687;PMS5003;24444;53.216;-6.664;2022-07-29T09:06:51;6;5;
38687;PMS5003;24444;53.216;-6.664;2022-07-29T09:09:20;4;4;
38687;PMS5003;24444;53.216;-6.664;2022-07-29T09:11:48;3;3;
38687;PMS5003;24444;53.216;-6.664;2022-07-29T09:14:15;6;4;
38687;PMS5003;24444;53.216;-6.664;2022-07-29T09:16:45;3;3;
38687;PMS5003;24444;53.216;-6.664;2022-07-29T09:19:23;3;3;
38687;PMS5003;24444;53.216;-6.664;2022-07-29T09:21:51;2;2;
38687;PMS5003;24444;53.216;-6.664;2022-07-29T09:24:20;4;4;
38687;PMS5003;24444;53.216;-6.664;2022-07-29T09:26:47;3;3;
38687;PMS5003;24444;53.216;-6.664;2022-07-29T09:29:15;3;3;
38687;PMS5003;24444;53.216;-6.664;2022-07-29T09:31:45;6;5;
38687;PMS5003;24444;53.216;-6.664;2022-07-29T09:34:15;3;3;
38687;PMS5003;24444;53.216;-6.664;2022-07-29T09:36:44;3;3;
38687;PMS5003;24444;53.216;-6.664;2022-07-29T09:39:14;5;5;
38687;PMS5003;24444;53.216;-6.664;2022-07-29T09:41:54;4;3;
38687;PMS5003;24444;53.216;-6.664;2022-07-29T09:44:23;4;4;
38687;PMS5003;24444;53.216;-6.664;2022-07-29T09:46:54;3;3;
38687;PMS5003;24444;53.216;-6.664;2022-07-29T09:49:24;6;5;
38687;PMS5003;24444;53.216;-6.664;2022-07-29T09:52:00;4;4;
38687;PMS5003;24444;53.216;-6.664;2022-07-29T09:54:32;22;21;
38687;PMS5003;24444;53.216;-6.664;2022-07-29T09:57:01;3;3;
38687;PMS5003;24444;53.216;-6.664;2022-07-29T09:59:28;5;4;
38687;PMS5003;24444;53.216;-6.664;2022-07-29T10:01:56;5;5;
38687;PMS5003;24444;53.216;-6.664;2022-07-29T10:04:23;3;3;
38687;PMS5003;24444;53.216;-6.664;2022-07-29T10:07:02;4;4;
38687;PMS5003;24444;53.216;-6.664;2022-07-29T10:09:29;5;4;
38687;PMS5003;24444;53.216;-6.664;2022-07-29T10:12:05;4;4;
38687;PMS5003;24444;53.216;-6.664;2022-07-29T10:14:34;7;5;
38687;PMS5003;24444;53.216;-6.664;2022-07-29T10:17:02;3;3;
38687;PMS5003;24444;53.216;-6.664;2022-07-29T10:19:31;3;3;
38687;PMS5003;24444;53.216;-6.664;2022-07-29T10:22:01;2;2;
38687;PMS5003;24444;53.216;-6.664;2022-07-29T10:24:31;3;2;
38687;PMS5003;24444;53.216;-6.664;2022-07-29T10:26:59;3;2;
38687;PMS5003;24444;53.216;-6.664;2022-07-29T10:29:28;2;2;
38687;PMS5003;24444;53.216;-6.664;2022-07-29T10:32:00;3;3;
38687;PMS5003;24444;53.216;-6.664;2022-07-29T10:34:44;2;2;
38687;PMS5003;24444;53.216;-6.664;2022-07-29T10:37:26;2;2;
38687;PMS5003;24444;53.216;-6.664;2022-07-29T10:40:04;4;4;
38687;PMS5003;24444;53.216;-6.664;2022-07-29T10:42:37;3;3;
38687;PMS5003;24444;53.216;-6.664;2022-07-29T10:45:08;4;4;
38687;PMS5003;24444;53.216;-6.664;2022-07-29T10:47:35;3;3;
38687;PMS5003;24444;53.216;-6.664;2022-07-29T10:50:04;4;4;
38687;PMS5003;24444;53.216;-6.664;2022-07-29T10:53:05;13;13;
38687;PMS5003;24444;53.216;-6.664;2022-07-29T10:55:33;4;4;
38687;PMS5003;24444;53.216;-6.664;2022-07-29T10:58:18;2;2;
38687;PMS5003;24444;53.216;-6.664;2022-07-29T11:00:48;4;3;
38687;PMS5003;24444;53.216;-6.664;2022-07-29T11:03:42;4;3;
38687;PMS5003;24444;53.216;-6.664;2022-07-29T11:06:10;4;4;
38687;PMS5003;24444;53.216;-6.664;2022-07-29T11:08:37;3;2;
38687;PMS5003;24444;53.216;-6.664;2022-07-29T11:11:30;2;2;
38687;PMS5003;24444;53.216;-6.664;2022-07-29T11:13:57;3;3;
38687;PMS5003;24444;53.216;-6.664;2022-07-29T11:16:25;3;3;
38687;PMS5003;24444;53.216;-6.664;2022-07-29T11:19:24;2;2;
38687;PMS5003;24444;53.216;-6.664;2022-07-29T11:21:51;4;4;
38687;PMS5003;24444;53.216;-6.664;2022-07-29T11:24:20;5;5;
38687;PMS5003;24444;53.216;-6.664;2022-07-29T11:27:21;5;5;
38687;PMS5003;24444;53.216;-6.664;2022-07-29T11:29:57;3;3;
38687;PMS5003;24444;53.216;-6.664;2022-07-29T11:32:25;6;3;
38687;PMS5003;24444;53.216;-6.664;2022-07-29T11:35:11;4;4;
38687;PMS5003;24444;53.216;-6.664;2022-07-29T11:37:41;5;3;
38687;PMS5003;24444;53.216;-6.664;2022-07-29T11:40:09;2;2;
38687;PMS5003;24444;53.216;-6.664;2022-07-29T11:42:46;2;2;
38687;PMS5003;24444;53.216;-6.664;2022-07-29T11:45:17;2;2;
38687;PMS5003;24444;53.216;-6.664;2022-07-29T11:47:48;2;2;
38687;PMS5003;24444;53.216;-6.664;2022-07-29T11:50:25;2;1;
38687;PMS5003;24444;53.216;-6.664;2022-07-29T11:52:54;2;2;
38687;PMS5003;24444;53.216;-6.664;2022-07-29T11:55:22;3;3;
38687;PMS5003;24444;53.216;-6.664;2022-07-29T11:57:51;3;3;
38687;PMS5003;24444;53.216;-6.664;2022-07-29T12:00:22;3;2;
38687;PMS5003;24444;53.216;-6.664;2022-07-29T12:02:51;3;2;
38687;PMS5003;24444;53.216;-6.664;2022-07-29T12:05:19;3;3;
38687;PMS5003;24444;53.216;-6.664;2022-07-29T12:07:47;3;3;
38687;PMS5003;24444;53.216;-6.664;2022-07-29T12:10:15;4;3;
38687;PMS5003;24444;53.216;-6.664;2022-07-29T12:12:43;3;2;
38687;PMS5003;24444;53.216;-6.664;2022-07-29T12:15:18;3;2;
38687;PMS5003;24444;53.216;-6.664;2022-07-29T12:17:46;2;2;
38687;PMS5003;24444;53.216;-6.664;2022-07-29T12:20:21;0;0;
38687;PMS5003;24444;53.216;-6.664;2022-07-29T12:22:50;2;2;
38687;PMS5003;24444;53.216;-6.664;2022-07-29T12:25:17;2;2;
38687;PMS5003;24444;53.216;-6.664;2022-07-29T12:27:45;2;2;
38687;PMS5003;24444;53.216;-6.664;2022-07-29T12:30:13;2;2;
38687;PMS5003;24444;53.216;-6.664;2022-07-29T12:32:42;4;3;
38687;PMS5003;24444;53.216;-6.664;2022-07-29T12:35:13;3;3;
38687;PMS5003;24444;53.216;-6.664;2022-07-29T12:37:43;3;3;
38687;PMS5003;24444;53.216;-6.664;2022-07-29T12:40:12;4;2;
38687;PMS5003;24444;53.216;-6.664;2022-07-29T12:42:41;1;1;
38687;PMS5003;24444;53.216;-6.664;2022-07-29T12:45:31;0;0;
38687;PMS5003;24444;53.216;-6.664;2022-07-29T12:47:58;0;0;
38687;PMS5003;24444;53.216;-6.664;2022-07-29T12:50:26;1;1;
38687;PMS5003;24444;53.216;-6.664;2022-07-29T12:52:53;3;2;
38687;PMS5003;24444;53.216;-6.664;2022-07-29T12:55:53;3;3;
38687;PMS5003;24444;53.216;-6.664;2022-07-29T12:58:30;1;1;
38687;PMS5003;24444;53.216;-6.664;2022-07-29T13:01:00;2;2;
38687;PMS5003;24444;53.216;-6.664;2022-07-29T13:03:40;1;1;
38687;PMS5003;24444;53.216;-6.664;2022-07-29T13:06:27;2;2;
38687;PMS5003;24444;53.216;-6.664;2022-07-29T13:09:00;3;3;
38687;PMS5003;24444;53.216;-6.664;2022-07-29T13:11:30;2;2;
38687;PMS5003;24444;53.216;-6.664;2022-07-29T13:13:59;1;1;
38687;PMS5003;24444;53.216;-6.664;2022-07-29T13:16:26;1;1;
38687;PMS5003;24444;53.216;-6.664;2022-07-29T13:19:10;2;2;
38687;PMS5003;24444;53.216;-6.664;2022-07-29T13:21:39;4;2;
38687;PMS5003;24444;53.216;-6.664;2022-07-29T13:24:06;2;2;
38687;PMS5003;24444;53.216;-6.664;2022-07-29T13:26:34;2;1;
38687;PMS5003;24444;53.216;-6.664;2022-07-29T13:29:06;1;1;
38687;PMS5003;24444;53.216;-6.664;2022-07-29T13:31:33;3;2;
38687;PMS5003;24444;53.216;-6.664;2022-07-29T13:34:00;2;2;
38687;PMS5003;24444;53.216;-6.664;2022-07-29T13:36:28;1;1;
38687;PMS5003;24444;53.216;-6.664;2022-07-29T13:38:55;2;2;
38687;PMS5003;24444;53.216;-6.664;2022-07-29T13:41:23;2;1;
38687;PMS5003;24444;53.216;-6.664;2022-07-29T13:43:50;3;1;
38687;PMS5003;24444;53.216;-6.664;2022-07-29T13:46:18;4;4;
38687;PMS5003;24444;53.216;-6.664;2022-07-29T13:48:45;3;2;
38687;PMS5003;24444;53.216;-6.664;2022-07-29T13:51:13;2;2;
38687;PMS5003;24444;53.216;-6.664;2022-07-29T13:53:40;4;3;
38687;PMS5003;24444;53.216;-6.664;2022-07-29T13:56:07;5;4;
38687;PMS5003;24444;53.216;-6.664;2022-07-29T13:58:35;2;1;
38687;PMS5003;24444;53.216;-6.664;2022-07-29T14:01:02;2;2;
38687;PMS5003;24444;53.216;-6.664;2022-07-29T14:03:30;4;2;
38687;PMS5003;24444;53.216;-6.664;2022-07-29T14:05:57;2;2;
38687;PMS5003;24444;53.216;-6.664;2022-07-29T14:08:25;2;2;
38687;PMS5003;24444;53.216;-6.664;2022-07-29T14:10:52;0;0;
38687;PMS5003;24444;53.216;-6.664;2022-07-29T14:13:19;2;2;
38687;PMS5003;24444;53.216;-6.664;2022-07-29T14:15:47;2;2;
38687;PMS5003;24444;53.216;-6.664;2022-07-29T14:18:15;0;0;
38687;PMS5003;24444;53.216;-6.664;2022-07-29T14:20:43;2;2;
38687;PMS5003;24444;53.216;-6.664;2022-07-29T14:23:10;1;0;
38687;PMS5003;24444;53.216;-6.664;2022-07-29T14:25:37;2;1;
38687;PMS5003;24444;53.216;-6.664;2022-07-29T14:28:05;3;2;
38687;PMS5003;24444;53.216;-6.664;2022-07-29T14:30:32;2;2;
38687;PMS5003;24444;53.216;-6.664;2022-07-29T14:33:00;2;2;
38687;PMS5003;24444;53.216;-6.664;2022-07-29T14:35:27;2;2;
38687;PMS5003;24444;53.216;-6.664;2022-07-29T14:37:55;1;1;
38687;PMS5003;24444;53.216;-6.664;2022-07-29T14:40:22;2;2;
38687;PMS5003;24444;53.216;-6.664;2022-07-29T14:42:49;3;3;
38687;PMS5003;24444;53.216;-6.664;2022-07-29T14:45:17;1;1;
38687;PMS5003;24444;53.216;-6.664;2022-07-29T14:47:44;4;4;
38687;PMS5003;24444;53.216;-6.664;2022-07-29T14:50:12;1;1;
38687;PMS5003;24444;53.216;-6.664;2022-07-29T14:52:39;3;3;
38687;PMS5003;24444;53.216;-6.664;2022-07-29T14:55:07;0;0;
38687;PMS5003;24444;53.216;-6.664;2022-07-29T14:57:35;2;2;
38687;PMS5003;24444;53.216;-6.664;2022-07-29T15:00:03;0;0;
38687;PMS5003;24444;53.216;-6.664;2022-07-29T15:02:32;2;1;
38687;PMS5003;24444;53.216;-6.664;2022-07-29T15:04:59;2;1;
38687;PMS5003;24444;53.216;-6.664;2022-07-29T15:07:27;1;1;
38687;PMS5003;24444;53.216;-6.664;2022-07-29T15:09:54;2;2;
38687;PMS5003;24444;53.216;-6.664;2022-07-29T15:12:22;3;2;
38687;PMS5003;24444;53.216;-6.664;2022-07-29T15:14:49;2;2;
38687;PMS5003;24444;53.216;-6.664;2022-07-29T15:17:17;1;1;
38687;PMS5003;24444;53.216;-6.664;2022-07-29T15:19:44;2;2;
38687;PMS5003;24444;53.216;-6.664;2022-07-29T15:22:12;3;3;
38687;PMS5003;24444;53.216;-6.664;2022-07-29T15:24:39;2;2;
38687;PMS5003;24444;53.216;-6.664;2022-07-29T15:27:06;2;2;
38687;PMS5003;24444;53.216;-6.664;2022-07-29T15:29:34;2;2;
38687;PMS5003;24444;53.216;-6.664;2022-07-29T15:32:01;3;3;
38687;PMS5003;24444;53.216;-6.664;2022-07-29T15:34:29;4;4;
38687;PMS5003;24444;53.216;-6.664;2022-07-29T15:36:56;2;2;
38687;PMS5003;24444;53.216;-6.664;2022-07-29T15:39:23;3;3;
38687;PMS5003;24444;53.216;-6.664;2022-07-29T15:41:51;1;1;
38687;PMS5003;24444;53.216;-6.664;2022-07-29T15:44:19;2;1;
38687;PMS5003;24444;53.216;-6.664;2022-07-29T15:46:46;1;1;
38687;PMS5003;24444;53.216;-6.664;2022-07-29T15:49:15;2;2;
38687;PMS5003;24444;53.216;-6.664;2022-07-29T15:51:42;2;1;
38687;PMS5003;24444;53.216;-6.664;2022-07-29T15:54:09;1;1;
38687;PMS5003;24444;53.216;-6.664;2022-07-29T15:56:37;3;3;
38687;PMS5003;24444;53.216;-6.664;2022-07-29T15:59:04;3;3;
38687;PMS5003;24444;53.216;-6.664;2022-07-29T16:01:32;2;2;
38687;PMS5003;24444;53.216;-6.664;2022-07-29T16:03:59;3;3;
38687;PMS5003;24444;53.216;-6.664;2022-07-29T16:06:26;3;3;
38687;PMS5003;24444;53.216;-6.664;2022-07-29T16:08:54;1;1;
38687;PMS5003;24444;53.216;-6.664;2022-07-29T16:11:21;3;3;
38687;PMS5003;24444;53.216;-6.664;2022-07-29T16:13:49;4;3;
38687;PMS5003;24444;53.216;-6.664;2022-07-29T16:16:16;1;1;
38687;PMS5003;24444;53.216;-6.664;2022-07-29T16:18:44;3;2;
38687;PMS5003;24444;53.216;-6.664;2022-07-29T16:21:11;3;2;
38687;PMS5003;24444;53.216;-6.664;2022-07-29T16:23:39;2;2;
38687;PMS5003;24444;53.216;-6.664;2022-07-29T16:26:06;3;3;
38687;PMS5003;24444;53.216;-6.664;2022-07-29T16:28:34;5;3;
38687;PMS5003;24444;53.216;-6.664;2022-07-29T16:31:01;4;3;
38687;PMS5003;24444;53.216;-6.664;2022-07-29T16:33:28;3;3;
38687;PMS5003;24444;53.216;-6.664;2022-07-29T16:35:56;2;2;
38687;PMS5003;24444;53.216;-6.664;2022-07-29T16:38:23;2;2;
38687;PMS5003;24444;53.216;-6.664;2022-07-29T16:40:51;2;2;
38687;PMS5003;24444;53.216;-6.664;2022-07-29T16:43:18;6;6;
38687;PMS5003;24444;53.216;-6.664;2022-07-29T16:45:45;4;4;